METAR Reports From Nearby Airports

 

KLUD - Decatur, Texas, USA
Distance from Wildwood: ESE 5mi, 8km
Dati ricevuti: Jun 18, 2019 6:35pm
Sereno
Sereno
 Vento da SO
Vento: SO 3 mph , 6 km/h
Temperatura: 88°F , 31°C
Indice di Calore: 92°F , 33°C
P.to Rugiada: 68°F , 20°C
Umidità: 52%
Barometro: 29.84 inHg , 1010.5 hPa
Clouds: Sereno
Visibility: 10 miles , 16 km
2019/06/18 23:35 KLUD 182335Z AUTO 22003KT 10SM CLR 31/20 A2984 RMK AO2 T03140201
KXBP - Bridgeport, Texas, USA
Distance from Wildwood: OSO 11mi, 18km
Dati ricevuti: Jun 18, 2019 6:35pm
Sereno
Sereno
 Vento da calm
Vento: Calma
Temperatura: 90°F , 32°C
Indice di Calore: 94°F , 34°C
P.to Rugiada: 68°F , 20°C
Umidità: 49%
Barometro: 29.84 inHg , 1010.5 hPa
Clouds: Sereno
Visibility: 10 miles , 16 km
2019/06/18 23:35 KXBP 182335Z AUTO 00000KT 10SM CLR 32/20 A2984 RMK AO2 T03150204
 
K0F2 - Bowie, Texas, USA
Distance from Wildwood: NNO 24mi, 39km
Dati ricevuti: Jun 18, 2019 6:35pm
Sereno
Sereno
 Vento da calm
Vento: Calma
Temperatura: 88°F , 31°C
Indice di Calore: 91°F , 33°C
P.to Rugiada: 66°F , 19°C
Umidità: 49%
Barometro: 29.84 inHg , 1010.5 hPa
Clouds: Sereno
Visibility: 10 miles , 16 km
2019/06/18 23:35 K0F2 182335Z AUTO 00000KT 10SM CLR 31/19 A2984 RMK AO2 T03100194
KDTO - Denton, Texas, USA
Distance from Wildwood: E 27mi, 44km
Dati ricevuti: Jun 18, 2019 5:53pm
Sereno
Sereno
 Vento da ESE
Vento: ESE 5 mph , 7 km/h
Temperatura: 91°F , 33°C
Indice di Calore: 93°F , 34°C
P.to Rugiada: 64°F , 18°C
Umidità: 41%
Barometro: 29.83 inHg , 1010.2 hPa
Clouds: Sereno
Visibility: 10 miles , 16 km
2019/06/18 22:53 KDTO 182253Z 11004KT 10SM CLR 33/18 A2983 RMK AO2 SLP091 T03280183
 
KAFW - Ft Worth/Allianc, Texas, USA
Distance from Wildwood: SE 29mi, 46km
Dati ricevuti: Jun 18, 2019 5:53pm
Few Clouds
Few Clouds
 Vento da S
Vento: S 6 mph , 9 km/h
Temperatura: 90°F , 32°C
Indice di Calore: 91°F , 33°C
P.to Rugiada: 63°F , 17°C
Umidità: 41%
Barometro: 29.83 inHg , 1010.2 hPa
Clouds: Few Clouds
Visibility: 10 miles , 16 km
Cloud details: Few Clouds 5000 ft
2019/06/18 22:53 KAFW 182253Z 18005KT 10SM FEW050 32/17 A2983 RMK SLPNO
KFTW - Fort Worth, Texas, USA
Distance from Wildwood: SSE 34mi, 55km
Dati ricevuti: Jun 18, 2019 5:53pm
Sereno
Sereno
 Vento da calm
Vento: Calma
Temperatura: 90°F , 32°C
Indice di Calore: 94°F , 34°C
P.to Rugiada: 68°F , 20°C
Umidità: 49%
Barometro: 29.83 inHg , 1010.2 hPa
Clouds: Sereno
Visibility: 10 miles , 16 km
2019/06/18 22:53 KFTW 182253Z 00000KT 10SM CLR 32/20 A2983 RMK AO2 SLP092 T03220200
 
KNFW - Fort Worth Nas, Texas, USA
Distance from Wildwood: SSE 36mi, 58km
Dati ricevuti: Jun 18, 2019 5:52pm
Few Clouds
Few Clouds
 Vento da NNE
Vento: NNE 6 mph , 9 km/h
Temperatura: 93°F , 34°C
Indice di Calore: 96°F , 36°C
P.to Rugiada: 66°F , 19°C
Umidità: 41%
Barometro: 29.83 inHg , 1010.2 hPa
Clouds: Few Clouds
Visibility: 10 miles , 16 km
Cloud details: Few Clouds 5000 ft
Few Clouds 30000 ft
2019/06/18 22:52 KNFW 182252Z 02005KT 10SM FEW050 FEW300 34/19 A2983 RMK AO2 SLP087 T03390189 VISNO N $
KGLE - Gainesville, Texas, USA
Distance from Wildwood: NE 38mi, 61km
Dati ricevuti: Jun 18, 2019 6:35pm
Sereno
Sereno
 Vento da calm
Vento: Calma
Temperatura: 88°F , 31°C
Indice di Calore: 91°F , 33°C
P.to Rugiada: 66°F , 19°C
Umidità: 49%
Barometro: 29.84 inHg , 1010.5 hPa
Clouds: Sereno
Visibility: 10 miles , 16 km
2019/06/18 23:35 KGLE 182335Z AUTO 00000KT 10SM CLR 31/19 A2984 RMK AO2 T03080192 PWINO
 
KMWL - Mineral Wells, Texas, USA
Distance from Wildwood: SO 41mi, 65km
Dati ricevuti: Jun 18, 2019 5:53pm
Sereno
Sereno
 Vento da S
Vento: S 8 mph , 13 km/h
Temperatura: 91°F , 33°C
Indice di Calore: 94°F , 34°C
P.to Rugiada: 66°F , 19°C
Umidità: 44%
Barometro: 29.83 inHg , 1010.2 hPa
Clouds: Sereno
Visibility: 10 miles , 16 km
2019/06/18 22:53 KMWL 182253Z AUTO 19007KT 150V210 10SM CLR 33/19 A2983 RMK AO2 SLP086 T03280194
KDFW - Dallas/Ft Worth, Texas, USA
Distance from Wildwood: ESE 45mi, 73km
Dati ricevuti: Jun 18, 2019 5:53pm
Few Clouds
Few Clouds
 Vento da SSO
Vento: SSO 8 mph , 13 km/h
Temperatura: 91°F , 33°C
Indice di Calore: 94°F , 34°C
P.to Rugiada: 66°F , 19°C
Umidità: 44%
Barometro: 29.82 inHg , 1009.8 hPa
Clouds: Few Clouds
Visibility: 10 miles , 16 km
Cloud details: Few Clouds 5500 ft
2019/06/18 22:53 KDFW 182253Z 21007KT 10SM FEW055 33/19 A2982 RMK AO2 SLP088 T03280189